sensor_id;sensor_type;location;lat;lon;timestamp;pressure;altitude;pressure_sealevel;temperature;humidity
78064;BME280;67429;51.596;-3.264;2023-04-25T00:00:43;99474.95;;;3.87;56.76
78064;BME280;67429;51.596;-3.264;2023-04-25T00:03:09;99482.05;;;3.37;57.36
78064;BME280;67429;51.596;-3.264;2023-04-25T00:05:35;99477.17;;;4.06;55.89
78064;BME280;67429;51.596;-3.264;2023-04-25T00:08:00;99480.77;;;4.54;54.07
78064;BME280;67429;51.596;-3.264;2023-04-25T00:10:26;99480.00;;;4.21;55.47
78064;BME280;67429;51.596;-3.264;2023-04-25T00:12:51;99483.10;;;3.98;55.50
78064;BME280;67429;51.596;-3.264;2023-04-25T00:15:17;99480.16;;;4.51;54.13
78064;BME280;67429;51.596;-3.264;2023-04-25T00:17:43;99488.43;;;4.08;54.79
78064;BME280;67429;51.596;-3.264;2023-04-25T00:20:10;99486.96;;;4.00;54.73
78064;BME280;67429;51.596;-3.264;2023-04-25T00:22:35;99492.78;;;3.37;54.77
78064;BME280;67429;51.596;-3.264;2023-04-25T00:25:00;99488.01;;;3.87;56.03
78064;BME280;67429;51.596;-3.264;2023-04-25T00:27:26;99492.98;;;3.24;55.47
78064;BME280;67429;51.596;-3.264;2023-04-25T00:29:52;99491.65;;;3.91;54.28
78064;BME280;67429;51.596;-3.264;2023-04-25T00:32:18;99494.69;;;3.68;54.17
78064;BME280;67429;51.596;-3.264;2023-04-25T00:34:43;99500.13;;;3.43;54.56
78064;BME280;67429;51.596;-3.264;2023-04-25T00:37:09;99497.26;;;4.24;52.68
78064;BME280;67429;51.596;-3.264;2023-04-25T00:39:35;99495.41;;;5.19;51.38
78064;BME280;67429;51.596;-3.264;2023-04-25T00:42:01;99493.58;;;5.11;50.78
78064;BME280;67429;51.596;-3.264;2023-04-25T00:44:27;99498.25;;;3.89;52.32
78064;BME280;67429;51.596;-3.264;2023-04-25T00:46:52;99497.28;;;4.37;52.06
78064;BME280;67429;51.596;-3.264;2023-04-25T00:49:17;99500.46;;;5.25;50.59
78064;BME280;67429;51.596;-3.264;2023-04-25T00:51:43;99504.18;;;5.09;50.87
78064;BME280;67429;51.596;-3.264;2023-04-25T00:54:09;99509.22;;;5.83;49.07
78064;BME280;67429;51.596;-3.264;2023-04-25T00:56:35;99509.48;;;5.41;49.57
78064;BME280;67429;51.596;-3.264;2023-04-25T00:59:00;99514.02;;;4.67;51.34
78064;BME280;67429;51.596;-3.264;2023-04-25T01:01:26;99517.07;;;4.18;52.47
78064;BME280;67429;51.596;-3.264;2023-04-25T01:03:52;99510.52;;;4.27;53.34
78064;BME280;67429;51.596;-3.264;2023-04-25T01:06:17;99510.43;;;4.46;52.84
78064;BME280;67429;51.596;-3.264;2023-04-25T01:08:43;99505.99;;;4.35;52.40
78064;BME280;67429;51.596;-3.264;2023-04-25T01:11:08;99507.43;;;3.36;54.30
78064;BME280;67429;51.596;-3.264;2023-04-25T01:13:34;99507.20;;;4.18;53.80
78064;BME280;67429;51.596;-3.264;2023-04-25T01:15:59;99509.00;;;3.98;53.41
78064;BME280;67429;51.596;-3.264;2023-04-25T01:18:25;99512.59;;;4.65;52.16
78064;BME280;67429;51.596;-3.264;2023-04-25T01:20:51;99516.04;;;4.45;52.65
78064;BME280;67429;51.596;-3.264;2023-04-25T01:23:16;99516.78;;;4.44;52.45
78064;BME280;67429;51.596;-3.264;2023-04-25T01:25:42;99521.70;;;4.36;51.92
78064;BME280;67429;51.596;-3.264;2023-04-25T01:28:07;99523.07;;;3.14;54.71
78064;BME280;67429;51.596;-3.264;2023-04-25T01:30:33;99527.51;;;3.76;53.55
78064;BME280;67429;51.596;-3.264;2023-04-25T01:32:59;99519.99;;;3.95;53.81
78064;BME280;67429;51.596;-3.264;2023-04-25T01:35:24;99523.31;;;3.83;53.27
78064;BME280;67429;51.596;-3.264;2023-04-25T01:37:51;99521.09;;;3.86;53.07
78064;BME280;67429;51.596;-3.264;2023-04-25T01:40:17;99523.03;;;4.20;53.10
78064;BME280;67429;51.596;-3.264;2023-04-25T01:42:43;99525.57;;;3.98;52.66
78064;BME280;67429;51.596;-3.264;2023-04-25T01:45:09;99526.83;;;3.98;52.44
78064;BME280;67429;51.596;-3.264;2023-04-25T01:47:33;99527.46;;;4.25;50.18
78064;BME280;67429;51.596;-3.264;2023-04-25T01:49:59;99527.25;;;3.82;52.40
78064;BME280;67429;51.596;-3.264;2023-04-25T01:52:24;99530.17;;;2.80;53.46
78064;BME280;67429;51.596;-3.264;2023-04-25T01:54:51;99529.18;;;2.94;54.22
78064;BME280;67429;51.596;-3.264;2023-04-25T01:57:16;99528.73;;;3.20;52.52
78064;BME280;67429;51.596;-3.264;2023-04-25T01:59:42;99529.28;;;3.37;51.63
78064;BME280;67429;51.596;-3.264;2023-04-25T02:02:08;99530.73;;;3.61;51.79
78064;BME280;67429;51.596;-3.264;2023-04-25T02:04:33;99529.58;;;3.58;50.34
78064;BME280;67429;51.596;-3.264;2023-04-25T02:06:59;99529.98;;;3.91;51.37
78064;BME280;67429;51.596;-3.264;2023-04-25T02:09:25;99530.83;;;3.56;51.11
78064;BME280;67429;51.596;-3.264;2023-04-25T02:11:52;99534.79;;;3.09;51.38
78064;BME280;67429;51.596;-3.264;2023-04-25T02:14:16;99531.41;;;3.40;52.09
78064;BME280;67429;51.596;-3.264;2023-04-25T02:16:42;99532.43;;;3.20;50.46
78064;BME280;67429;51.596;-3.264;2023-04-25T02:19:08;99539.14;;;3.89;49.71
78064;BME280;67429;51.596;-3.264;2023-04-25T02:21:33;99541.97;;;2.60;50.54
78064;BME280;67429;51.596;-3.264;2023-04-25T02:23:59;99543.54;;;3.32;50.13
78064;BME280;67429;51.596;-3.264;2023-04-25T02:26:25;99543.29;;;2.97;50.35
78064;BME280;67429;51.596;-3.264;2023-04-25T02:28:51;99545.77;;;3.24;49.89
78064;BME280;67429;51.596;-3.264;2023-04-25T02:31:17;99545.05;;;3.32;49.83
78064;BME280;67429;51.596;-3.264;2023-04-25T02:33:43;99547.36;;;3.01;50.03
78064;BME280;67429;51.596;-3.264;2023-04-25T02:36:08;99544.39;;;3.40;49.95
78064;BME280;67429;51.596;-3.264;2023-04-25T02:38:34;99544.80;;;3.58;49.70
78064;BME280;67429;51.596;-3.264;2023-04-25T02:40:59;99544.35;;;3.58;48.43
78064;BME280;67429;51.596;-3.264;2023-04-25T02:43:25;99545.63;;;3.63;48.40
78064;BME280;67429;51.596;-3.264;2023-04-25T02:45:51;99549.40;;;3.77;48.52
78064;BME280;67429;51.596;-3.264;2023-04-25T02:48:17;99552.39;;;3.34;49.41
78064;BME280;67429;51.596;-3.264;2023-04-25T02:50:43;99550.65;;;2.95;51.00
78064;BME280;67429;51.596;-3.264;2023-04-25T02:53:09;99549.19;;;3.41;49.95
78064;BME280;67429;51.596;-3.264;2023-04-25T02:55:34;99552.67;;;2.90;50.81
78064;BME280;67429;51.596;-3.264;2023-04-25T02:58:00;99548.09;;;2.59;51.38
78064;BME280;67429;51.596;-3.264;2023-04-25T03:00:26;99548.72;;;2.56;52.14
78064;BME280;67429;51.596;-3.264;2023-04-25T03:02:51;99547.86;;;2.42;53.02
78064;BME280;67429;51.596;-3.264;2023-04-25T03:05:17;99550.26;;;1.83;54.13
78064;BME280;67429;51.596;-3.264;2023-04-25T03:07:43;99549.57;;;2.12;53.93
78064;BME280;67429;51.596;-3.264;2023-04-25T03:10:09;99550.59;;;2.43;54.90
78064;BME280;67429;51.596;-3.264;2023-04-25T03:12:35;99554.77;;;2.14;55.32
78064;BME280;67429;51.596;-3.264;2023-04-25T03:15:00;99556.06;;;1.75;55.80
78064;BME280;67429;51.596;-3.264;2023-04-25T03:17:26;99556.07;;;1.40;56.54
78064;BME280;67429;51.596;-3.264;2023-04-25T03:19:52;99559.60;;;2.01;55.63
78064;BME280;67429;51.596;-3.264;2023-04-25T03:22:18;99561.95;;;1.83;55.95
78064;BME280;67429;51.596;-3.264;2023-04-25T03:24:43;99566.44;;;1.92;55.37
78064;BME280;67429;51.596;-3.264;2023-04-25T03:27:09;99563.94;;;1.69;56.16
78064;BME280;67429;51.596;-3.264;2023-04-25T03:29:35;99566.47;;;1.78;55.78
78064;BME280;67429;51.596;-3.264;2023-04-25T03:32:01;99567.56;;;1.94;55.41
78064;BME280;67429;51.596;-3.264;2023-04-25T03:34:27;99566.90;;;2.44;54.89
78064;BME280;67429;51.596;-3.264;2023-04-25T03:36:52;99571.82;;;2.26;54.73
78064;BME280;67429;51.596;-3.264;2023-04-25T03:39:18;99578.41;;;2.18;54.29
78064;BME280;67429;51.596;-3.264;2023-04-25T03:41:44;99582.47;;;2.61;53.58
78064;BME280;67429;51.596;-3.264;2023-04-25T03:44:09;99581.80;;;2.38;54.33
78064;BME280;67429;51.596;-3.264;2023-04-25T03:46:35;99582.91;;;2.62;53.91
78064;BME280;67429;51.596;-3.264;2023-04-25T03:49:00;99585.84;;;3.16;52.36
78064;BME280;67429;51.596;-3.264;2023-04-25T03:51:26;99586.20;;;3.63;51.01
78064;BME280;67429;51.596;-3.264;2023-04-25T03:53:52;99590.37;;;3.72;50.53
78064;BME280;67429;51.596;-3.264;2023-04-25T03:56:18;99590.18;;;4.09;49.03
78064;BME280;67429;51.596;-3.264;2023-04-25T03:58:44;99595.10;;;3.96;49.67
78064;BME280;67429;51.596;-3.264;2023-04-25T04:01:09;99599.55;;;3.94;50.30
78064;BME280;67429;51.596;-3.264;2023-04-25T04:03:36;99600.05;;;3.26;52.35
78064;BME280;67429;51.596;-3.264;2023-04-25T04:06:01;99604.29;;;3.18;51.80
78064;BME280;67429;51.596;-3.264;2023-04-25T04:08:27;99606.17;;;2.78;52.19
78064;BME280;67429;51.596;-3.264;2023-04-25T04:10:53;99610.47;;;3.34;51.54
78064;BME280;67429;51.596;-3.264;2023-04-25T04:13:19;99611.95;;;3.71;49.92
78064;BME280;67429;51.596;-3.264;2023-04-25T04:15:44;99607.63;;;3.15;51.79
78064;BME280;67429;51.596;-3.264;2023-04-25T04:18:10;99607.94;;;3.75;50.92
78064;BME280;67429;51.596;-3.264;2023-04-25T04:20:36;99612.66;;;3.04;52.04
78064;BME280;67429;51.596;-3.264;2023-04-25T04:23:02;99612.29;;;3.24;51.28
78064;BME280;67429;51.596;-3.264;2023-04-25T04:25:27;99610.67;;;3.75;50.26
78064;BME280;67429;51.596;-3.264;2023-04-25T04:27:54;99616.13;;;3.32;51.21
78064;BME280;67429;51.596;-3.264;2023-04-25T04:30:19;99616.98;;;3.17;51.54
78064;BME280;67429;51.596;-3.264;2023-04-25T04:32:44;99615.58;;;2.28;53.77
78064;BME280;67429;51.596;-3.264;2023-04-25T04:35:10;99617.20;;;2.87;52.22
78064;BME280;67429;51.596;-3.264;2023-04-25T04:37:35;99620.91;;;3.00;51.84
78064;BME280;67429;51.596;-3.264;2023-04-25T04:40:01;99621.93;;;2.74;52.65
78064;BME280;67429;51.596;-3.264;2023-04-25T04:42:27;99621.17;;;2.37;53.18
78064;BME280;67429;51.596;-3.264;2023-04-25T04:44:52;99619.23;;;2.59;53.34
78064;BME280;67429;51.596;-3.264;2023-04-25T04:47:18;99625.60;;;2.16;53.57
78064;BME280;67429;51.596;-3.264;2023-04-25T04:49:44;99628.89;;;2.11;53.83
78064;BME280;67429;51.596;-3.264;2023-04-25T04:52:09;99632.69;;;2.80;51.53
78064;BME280;67429;51.596;-3.264;2023-04-25T04:54:34;99634.70;;;2.59;52.12
78064;BME280;67429;51.596;-3.264;2023-04-25T04:57:00;99636.67;;;2.32;53.24
78064;BME280;67429;51.596;-3.264;2023-04-25T04:59:25;99638.70;;;1.49;54.46
78064;BME280;67429;51.596;-3.264;2023-04-25T05:01:52;99644.72;;;1.19;55.20
78064;BME280;67429;51.596;-3.264;2023-04-25T05:04:17;99646.04;;;1.09;56.02
78064;BME280;67429;51.596;-3.264;2023-04-25T05:06:42;99647.90;;;1.01;56.53
78064;BME280;67429;51.596;-3.264;2023-04-25T05:09:08;99651.69;;;0.59;57.70
78064;BME280;67429;51.596;-3.264;2023-04-25T05:11:33;99650.52;;;0.49;58.00
78064;BME280;67429;51.596;-3.264;2023-04-25T05:13:58;99653.67;;;0.56;57.77
78064;BME280;67429;51.596;-3.264;2023-04-25T05:16:24;99658.68;;;0.62;57.64
78064;BME280;67429;51.596;-3.264;2023-04-25T05:18:50;99661.64;;;0.40;57.89
78064;BME280;67429;51.596;-3.264;2023-04-25T05:21:15;99661.68;;;0.21;58.44
78064;BME280;67429;51.596;-3.264;2023-04-25T05:23:41;99662.22;;;0.54;57.91
78064;BME280;67429;51.596;-3.264;2023-04-25T05:26:06;99665.15;;;0.83;57.36
78064;BME280;67429;51.596;-3.264;2023-04-25T05:28:31;99671.06;;;0.69;57.06
78064;BME280;67429;51.596;-3.264;2023-04-25T05:30:57;99673.81;;;0.96;56.46
78064;BME280;67429;51.596;-3.264;2023-04-25T05:33:23;99680.26;;;0.91;56.22
78064;BME280;67429;51.596;-3.264;2023-04-25T05:35:49;99682.69;;;1.02;55.69
78064;BME280;67429;51.596;-3.264;2023-04-25T05:38:14;99686.49;;;1.28;55.50
78064;BME280;67429;51.596;-3.264;2023-04-25T05:40:40;99689.08;;;1.12;55.94
78064;BME280;67429;51.596;-3.264;2023-04-25T05:43:06;99692.22;;;1.05;55.95
78064;BME280;67429;51.596;-3.264;2023-04-25T05:45:31;99693.42;;;1.29;55.60
78064;BME280;67429;51.596;-3.264;2023-04-25T05:47:56;99695.31;;;0.90;56.22
78064;BME280;67429;51.596;-3.264;2023-04-25T05:50:22;99696.20;;;0.87;55.93
78064;BME280;67429;51.596;-3.264;2023-04-25T05:52:47;99698.05;;;0.90;55.89
78064;BME280;67429;51.596;-3.264;2023-04-25T05:55:13;99698.16;;;1.24;55.26
78064;BME280;67429;51.596;-3.264;2023-04-25T05:57:38;99699.85;;;0.46;56.21
78064;BME280;67429;51.596;-3.264;2023-04-25T06:00:06;99704.23;;;0.53;56.27
78064;BME280;67429;51.596;-3.264;2023-04-25T06:02:29;99707.55;;;0.51;56.60
78064;BME280;67429;51.596;-3.264;2023-04-25T06:04:55;99702.84;;;0.85;56.26
78064;BME280;67429;51.596;-3.264;2023-04-25T06:07:21;99706.69;;;0.53;56.44
78064;BME280;67429;51.596;-3.264;2023-04-25T06:09:46;99706.82;;;0.88;56.72
78064;BME280;67429;51.596;-3.264;2023-04-25T06:12:12;99704.05;;;0.75;56.17
78064;BME280;67429;51.596;-3.264;2023-04-25T06:14:38;99702.66;;;0.72;56.40
78064;BME280;67429;51.596;-3.264;2023-04-25T06:17:03;99704.61;;;1.01;55.36
78064;BME280;67429;51.596;-3.264;2023-04-25T06:19:28;99708.01;;;1.44;53.45
78064;BME280;67429;51.596;-3.264;2023-04-25T06:21:53;99703.02;;;2.44;51.88
78064;BME280;67429;51.596;-3.264;2023-04-25T06:24:19;99700.20;;;1.75;52.34
78064;BME280;67429;51.596;-3.264;2023-04-25T06:26:44;99706.97;;;1.54;53.99
78064;BME280;67429;51.596;-3.264;2023-04-25T06:29:10;99706.09;;;1.44;54.95
78064;BME280;67429;51.596;-3.264;2023-04-25T06:31:35;99710.09;;;2.17;54.23
78064;BME280;67429;51.596;-3.264;2023-04-25T06:34:00;99706.36;;;2.14;53.32
78064;BME280;67429;51.596;-3.264;2023-04-25T06:36:25;99706.01;;;2.06;52.87
78064;BME280;67429;51.596;-3.264;2023-04-25T06:38:52;99705.36;;;2.98;50.91
78064;BME280;67429;51.596;-3.264;2023-04-25T06:41:17;99707.82;;;2.80;51.08
78064;BME280;67429;51.596;-3.264;2023-04-25T06:43:43;99703.76;;;2.57;51.22
78064;BME280;67429;51.596;-3.264;2023-04-25T06:46:08;99707.57;;;1.64;52.18
78064;BME280;67429;51.596;-3.264;2023-04-25T06:48:34;99705.28;;;2.45;51.58
78064;BME280;67429;51.596;-3.264;2023-04-25T06:50:59;99704.61;;;2.66;51.21
78064;BME280;67429;51.596;-3.264;2023-04-25T06:53:25;99704.39;;;3.06;50.48
78064;BME280;67429;51.596;-3.264;2023-04-25T06:55:51;99706.46;;;3.66;49.21
78064;BME280;67429;51.596;-3.264;2023-04-25T06:58:17;99704.87;;;3.79;48.82
78064;BME280;67429;51.596;-3.264;2023-04-25T07:00:42;99704.25;;;4.52;48.13
78064;BME280;67429;51.596;-3.264;2023-04-25T07:03:08;99704.82;;;4.63;46.94
78064;BME280;67429;51.596;-3.264;2023-04-25T07:05:33;99709.36;;;4.63;46.52
78064;BME280;67429;51.596;-3.264;2023-04-25T07:07:59;99710.86;;;4.76;46.11
78064;BME280;67429;51.596;-3.264;2023-04-25T07:10:25;99715.47;;;4.42;46.23
78064;BME280;67429;51.596;-3.264;2023-04-25T07:12:50;99715.95;;;4.90;46.53
78064;BME280;67429;51.596;-3.264;2023-04-25T07:15:16;99719.52;;;5.44;45.51
78064;BME280;67429;51.596;-3.264;2023-04-25T07:17:41;99725.03;;;5.36;43.79
78064;BME280;67429;51.596;-3.264;2023-04-25T07:20:08;99725.61;;;6.66;42.87
78064;BME280;67429;51.596;-3.264;2023-04-25T07:22:33;99722.30;;;5.68;43.16
78064;BME280;67429;51.596;-3.264;2023-04-25T07:24:58;99723.10;;;6.23;44.51
78064;BME280;67429;51.596;-3.264;2023-04-25T07:27:24;99724.22;;;6.40;42.66
78064;BME280;67429;51.596;-3.264;2023-04-25T07:29:49;99727.70;;;6.63;42.62
78064;BME280;67429;51.596;-3.264;2023-04-25T07:32:15;99723.89;;;6.85;41.44
78064;BME280;67429;51.596;-3.264;2023-04-25T07:34:41;99725.64;;;7.65;42.14
78064;BME280;67429;51.596;-3.264;2023-04-25T07:37:07;99725.48;;;6.44;40.30
78064;BME280;67429;51.596;-3.264;2023-04-25T07:39:32;99723.43;;;7.20;40.75
78064;BME280;67429;51.596;-3.264;2023-04-25T07:41:58;99726.49;;;6.85;40.44
78064;BME280;67429;51.596;-3.264;2023-04-25T07:44:24;99727.05;;;6.53;40.59
78064;BME280;67429;51.596;-3.264;2023-04-25T07:46:49;99726.44;;;8.03;39.66
78064;BME280;67429;51.596;-3.264;2023-04-25T07:49:15;99728.02;;;8.15;40.87
78064;BME280;67429;51.596;-3.264;2023-04-25T07:51:41;99727.12;;;8.58;39.65
78064;BME280;67429;51.596;-3.264;2023-04-25T07:54:06;99726.89;;;8.81;39.26
78064;BME280;67429;51.596;-3.264;2023-04-25T07:56:32;99726.93;;;8.84;38.07
78064;BME280;67429;51.596;-3.264;2023-04-25T07:58:58;99726.44;;;8.76;37.50
78064;BME280;67429;51.596;-3.264;2023-04-25T08:01:24;99721.42;;;9.29;37.75
78064;BME280;67429;51.596;-3.264;2023-04-25T08:03:49;99721.47;;;9.42;37.80
78064;BME280;67429;51.596;-3.264;2023-04-25T08:06:15;99718.93;;;8.93;38.33
78064;BME280;67429;51.596;-3.264;2023-04-25T08:08:40;99720.85;;;8.33;38.23
78064;BME280;67429;51.596;-3.264;2023-04-25T08:11:06;99717.13;;;7.03;39.77
78064;BME280;67429;51.596;-3.264;2023-04-25T08:13:32;99716.86;;;7.42;39.90
78064;BME280;67429;51.596;-3.264;2023-04-25T08:15:57;99717.64;;;7.82;38.06
78064;BME280;67429;51.596;-3.264;2023-04-25T08:18:23;99720.65;;;8.30;37.63
78064;BME280;67429;51.596;-3.264;2023-04-25T08:20:49;99722.73;;;7.85;37.99
78064;BME280;67429;51.596;-3.264;2023-04-25T08:23:14;99716.52;;;7.69;36.07
78064;BME280;67429;51.596;-3.264;2023-04-25T08:25:40;99717.61;;;7.98;37.23
78064;BME280;67429;51.596;-3.264;2023-04-25T08:28:06;99720.06;;;9.09;36.49
78064;BME280;67429;51.596;-3.264;2023-04-25T08:30:31;99718.05;;;8.43;35.76
78064;BME280;67429;51.596;-3.264;2023-04-25T08:32:57;99719.66;;;8.02;37.26
78064;BME280;67429;51.596;-3.264;2023-04-25T08:35:23;99721.03;;;8.08;38.39
78064;BME280;67429;51.596;-3.264;2023-04-25T08:37:48;99720.55;;;8.58;37.63
78064;BME280;67429;51.596;-3.264;2023-04-25T08:40:15;99721.78;;;8.32;36.78
78064;BME280;67429;51.596;-3.264;2023-04-25T08:42:41;99725.08;;;8.85;38.13
78064;BME280;67429;51.596;-3.264;2023-04-25T08:45:07;99727.21;;;8.55;36.46
78064;BME280;67429;51.596;-3.264;2023-04-25T08:47:33;99727.11;;;8.76;36.69
78064;BME280;67429;51.596;-3.264;2023-04-25T08:49:58;99723.05;;;8.49;38.29
78064;BME280;67429;51.596;-3.264;2023-04-25T08:52:23;99726.96;;;8.83;35.53
78064;BME280;67429;51.596;-3.264;2023-04-25T08:54:48;99728.72;;;8.75;37.71
78064;BME280;67429;51.596;-3.264;2023-04-25T08:57:15;99725.56;;;8.62;36.30
78064;BME280;67429;51.596;-3.264;2023-04-25T08:59:40;99719.28;;;8.31;33.20
78064;BME280;67429;51.596;-3.264;2023-04-25T09:02:05;99717.02;;;7.91;34.00
78064;BME280;67429;51.596;-3.264;2023-04-25T09:04:31;99725.73;;;8.58;34.24
78064;BME280;67429;51.596;-3.264;2023-04-25T09:06:56;99724.11;;;8.55;32.75
78064;BME280;67429;51.596;-3.264;2023-04-25T09:09:23;99719.94;;;8.70;33.22
78064;BME280;67429;51.596;-3.264;2023-04-25T09:11:48;99722.31;;;9.36;33.07
78064;BME280;67429;51.596;-3.264;2023-04-25T09:14:15;99717.42;;;10.04;31.06
78064;BME280;67429;51.596;-3.264;2023-04-25T09:19:04;99721.64;;;9.17;29.93
78064;BME280;67429;51.596;-3.264;2023-04-25T09:21:30;99727.63;;;9.46;32.06
78064;BME280;67429;51.596;-3.264;2023-04-25T09:23:56;99724.07;;;9.72;31.03
78064;BME280;67429;51.596;-3.264;2023-04-25T09:26:21;99718.75;;;9.95;30.78
78064;BME280;67429;51.596;-3.264;2023-04-25T09:28:47;99727.16;;;9.61;30.50
78064;BME280;67429;51.596;-3.264;2023-04-25T09:31:21;99723.92;;;9.97;31.24
78064;BME280;67429;51.596;-3.264;2023-04-25T09:33:40;99723.05;;;9.23;31.52
78064;BME280;67429;51.596;-3.264;2023-04-25T09:36:06;99725.40;;;8.98;31.77
78064;BME280;67429;51.596;-3.264;2023-04-25T09:38:30;99727.55;;;9.96;31.61
78064;BME280;67429;51.596;-3.264;2023-04-25T09:40:55;99725.54;;;9.42;31.27
78064;BME280;67429;51.596;-3.264;2023-04-25T09:43:22;99730.87;;;9.49;31.60
78064;BME280;67429;51.596;-3.264;2023-04-25T09:45:47;99729.42;;;9.32;30.93
78064;BME280;67429;51.596;-3.264;2023-04-25T09:48:16;99732.40;;;9.28;30.12
78064;BME280;67429;51.596;-3.264;2023-04-25T09:50:38;99729.70;;;9.47;29.71
78064;BME280;67429;51.596;-3.264;2023-04-25T09:53:04;99727.70;;;10.12;31.27
78064;BME280;67429;51.596;-3.264;2023-04-25T09:55:29;99726.56;;;10.85;30.92
78064;BME280;67429;51.596;-3.264;2023-04-25T09:57:58;99727.75;;;10.18;29.87
78064;BME280;67429;51.596;-3.264;2023-04-25T10:00:21;99735.49;;;9.68;31.61
78064;BME280;67429;51.596;-3.264;2023-04-25T10:02:47;99733.12;;;10.32;30.69
78064;BME280;67429;51.596;-3.264;2023-04-25T10:05:12;99727.72;;;10.92;29.21
78064;BME280;67429;51.596;-3.264;2023-04-25T10:07:38;99733.48;;;11.11;28.60
78064;BME280;67429;51.596;-3.264;2023-04-25T10:10:04;99735.09;;;10.94;28.79
78064;BME280;67429;51.596;-3.264;2023-04-25T10:12:28;99738.55;;;11.37;28.68
78064;BME280;67429;51.596;-3.264;2023-04-25T10:14:54;99739.46;;;11.64;28.19
78064;BME280;67429;51.596;-3.264;2023-04-25T10:17:20;99738.10;;;10.60;28.19
78064;BME280;67429;51.596;-3.264;2023-04-25T10:19:46;99744.44;;;11.02;27.67
78064;BME280;67429;51.596;-3.264;2023-04-25T10:22:17;99744.13;;;11.37;28.20
78064;BME280;67429;51.596;-3.264;2023-04-25T10:24:37;99747.31;;;9.87;27.88
78064;BME280;67429;51.596;-3.264;2023-04-25T10:27:02;99745.98;;;11.07;27.96
78064;BME280;67429;51.596;-3.264;2023-04-25T10:29:27;99737.02;;;11.94;27.50
78064;BME280;67429;51.596;-3.264;2023-04-25T10:31:53;99738.35;;;10.55;27.78
78064;BME280;67429;51.596;-3.264;2023-04-25T10:34:19;99735.73;;;10.80;27.94
78064;BME280;67429;51.596;-3.264;2023-04-25T10:36:49;99736.96;;;11.22;29.68
78064;BME280;67429;51.596;-3.264;2023-04-25T10:39:10;99744.72;;;11.15;28.11
78064;BME280;67429;51.596;-3.264;2023-04-25T10:41:46;99742.56;;;11.01;28.44
78064;BME280;67429;51.596;-3.264;2023-04-25T10:44:01;99746.71;;;11.05;28.92
78064;BME280;67429;51.596;-3.264;2023-04-25T10:46:28;99748.12;;;11.54;30.05
78064;BME280;67429;51.596;-3.264;2023-04-25T10:48:53;99747.30;;;11.97;27.97
78064;BME280;67429;51.596;-3.264;2023-04-25T10:51:20;99746.10;;;12.41;26.88
78064;BME280;67429;51.596;-3.264;2023-04-25T10:53:44;99743.72;;;11.68;27.65
78064;BME280;67429;51.596;-3.264;2023-04-25T10:56:11;99745.94;;;11.73;28.74
78064;BME280;67429;51.596;-3.264;2023-04-25T10:58:34;99740.16;;;11.98;27.26
78064;BME280;67429;51.596;-3.264;2023-04-25T11:01:01;99741.10;;;11.69;28.78
78064;BME280;67429;51.596;-3.264;2023-04-25T11:03:26;99742.04;;;12.50;26.65
78064;BME280;67429;51.596;-3.264;2023-04-25T11:05:52;99749.07;;;13.46;26.86
78064;BME280;67429;51.596;-3.264;2023-04-25T11:08:24;99748.30;;;13.04;26.90
78064;BME280;67429;51.596;-3.264;2023-04-25T11:10:43;99750.49;;;12.73;26.03
78064;BME280;67429;51.596;-3.264;2023-04-25T11:13:08;99750.61;;;13.87;26.02
78064;BME280;67429;51.596;-3.264;2023-04-25T11:15:34;99743.93;;;13.61;25.69
78064;BME280;67429;51.596;-3.264;2023-04-25T11:17:59;99753.26;;;13.56;24.98
78064;BME280;67429;51.596;-3.264;2023-04-25T11:20:26;99748.12;;;13.43;23.74
78064;BME280;67429;51.596;-3.264;2023-04-25T11:22:50;99750.14;;;13.23;24.20
78064;BME280;67429;51.596;-3.264;2023-04-25T11:25:16;99747.06;;;13.29;25.66
78064;BME280;67429;51.596;-3.264;2023-04-25T11:27:50;99750.65;;;13.46;25.02
78064;BME280;67429;51.596;-3.264;2023-04-25T11:30:12;99745.23;;;13.87;25.07
78064;BME280;67429;51.596;-3.264;2023-04-25T11:32:33;99748.88;;;13.62;25.26
78064;BME280;67429;51.596;-3.264;2023-04-25T11:34:58;99748.39;;;13.54;26.13
78064;BME280;67429;51.596;-3.264;2023-04-25T11:37:24;99750.67;;;14.20;27.00
78064;BME280;67429;51.596;-3.264;2023-04-25T11:39:49;99748.63;;;14.24;25.51
78064;BME280;67429;51.596;-3.264;2023-04-25T11:42:15;99748.90;;;14.17;25.60
78064;BME280;67429;51.596;-3.264;2023-04-25T11:44:40;99752.28;;;13.78;25.79
78064;BME280;67429;51.596;-3.264;2023-04-25T11:47:06;99753.24;;;13.92;25.90
78064;BME280;67429;51.596;-3.264;2023-04-25T11:49:31;99746.51;;;13.74;25.42
78064;BME280;67429;51.596;-3.264;2023-04-25T11:51:57;99747.32;;;14.48;25.43
78064;BME280;67429;51.596;-3.264;2023-04-25T11:54:23;99743.15;;;14.66;25.91
78064;BME280;67429;51.596;-3.264;2023-04-25T11:56:48;99744.11;;;13.58;26.84
78064;BME280;67429;51.596;-3.264;2023-04-25T11:59:14;99747.54;;;13.22;26.79
78064;BME280;67429;51.596;-3.264;2023-04-25T12:01:40;99751.30;;;13.87;26.47
78064;BME280;67429;51.596;-3.264;2023-04-25T12:04:12;99743.92;;;14.89;24.49
78064;BME280;67429;51.596;-3.264;2023-04-25T12:06:30;99749.82;;;13.20;26.23
78064;BME280;67429;51.596;-3.264;2023-04-25T12:09:01;99746.24;;;14.17;26.01
78064;BME280;67429;51.596;-3.264;2023-04-25T12:11:21;99748.10;;;14.25;25.97
78064;BME280;67429;51.596;-3.264;2023-04-25T12:13:52;99748.81;;;13.79;25.37
78064;BME280;67429;51.596;-3.264;2023-04-25T12:16:12;99746.69;;;14.91;24.27
78064;BME280;67429;51.596;-3.264;2023-04-25T12:18:39;99743.60;;;16.55;23.36
78064;BME280;67429;51.596;-3.264;2023-04-25T12:21:04;99746.14;;;17.69;21.14
78064;BME280;67429;51.596;-3.264;2023-04-25T12:23:30;99740.41;;;15.64;23.47
78064;BME280;67429;51.596;-3.264;2023-04-25T12:25:55;99752.65;;;14.08;24.72
78064;BME280;67429;51.596;-3.264;2023-04-25T12:28:22;99743.72;;;15.32;25.15
78064;BME280;67429;51.596;-3.264;2023-04-25T12:30:54;99747.65;;;13.73;24.78
78064;BME280;67429;51.596;-3.264;2023-04-25T12:33:12;99747.75;;;13.03;25.09
78064;BME280;67429;51.596;-3.264;2023-04-25T12:35:37;99744.64;;;14.90;23.94
78064;BME280;67429;51.596;-3.264;2023-04-25T12:38:03;99745.68;;;15.57;24.11
78064;BME280;67429;51.596;-3.264;2023-04-25T12:40:28;99742.86;;;14.53;25.70
78064;BME280;67429;51.596;-3.264;2023-04-25T12:42:54;99748.51;;;14.19;25.75
78064;BME280;67429;51.596;-3.264;2023-04-25T12:45:19;99745.92;;;13.63;25.61
78064;BME280;67429;51.596;-3.264;2023-04-25T12:47:45;99750.58;;;14.19;26.13
78064;BME280;67429;51.596;-3.264;2023-04-25T12:50:10;99748.69;;;15.13;24.48